KBPI

Miley Memorial Field Airport

Big Piney, Wyoming, USA
METAR KBPI 211253Z AUTO 14003KT 10SM CLR M30/M33 A3006 RMK AO2 SLP310 T13001333
Observed Flight Rules
Feb-21 @ 12:53 UTC (24 minutes ago) Visual Flight Rules
Wind Visibility Clouds
140° at 3 knots 10 miles
  • Clear skies
Temperatures Readings
Current -30°C / -22°F
Dewpoint -33°C / -27°F
Humidity 75%
Altimeter 30.06" Hg
Pressure 1031 hPa
Elevation 2117
METAR KBPI 211253Z AUTO 14003KT 10SM CLR M30/M33 A3006 RMK AO2 SLP310 T13001333
Observed Flight Rules
Feb-21 @ 12:53 UTC
(24 minutes ago)
VFR
Wind Visibility
140° at 3 knots 10 miles
Clouds
  • Clear skies
Temperature Dewpoint
-30°C / -22°F -33°C / -27°F
Humidity Altimeter Pressure
75% 30.06" Hg 1031 hPa